createdAt,value
2022-11-26T00:01:05.936Z,61.03
2022-11-26T00:03:39.076Z,60.91
2022-11-26T00:06:26.652Z,60.94
2022-11-26T00:09:00.923Z,61.08
2022-11-26T00:11:32.924Z,61.14
2022-11-26T00:14:06.587Z,61.24
2022-11-26T00:16:38.515Z,61.15
2022-11-26T00:19:12.755Z,61.11
2022-11-26T00:21:48.692Z,61.11
2022-11-26T00:24:32.293Z,61.09
2022-11-26T00:27:05.741Z,60.98
2022-11-26T00:29:38.489Z,60.79
2022-11-26T00:32:13.199Z,60.79
2022-11-26T00:34:46.949Z,60.85
2022-11-26T00:37:23.867Z,60.88
2022-11-26T00:39:57.324Z,60.71
2022-11-26T00:42:29.821Z,61.11
2022-11-26T00:45:05.115Z,61.19
2022-11-26T00:47:38.574Z,61.29
2022-11-26T00:50:17.507Z,61.24
2022-11-26T00:52:50.896Z,61.34
2022-11-26T00:55:28.070Z,61.04
2022-11-26T00:58:03.420Z,60.88
2022-11-26T01:00:36.730Z,60.97
2022-11-26T01:03:09.851Z,61.11
2022-11-26T01:05:45.498Z,61.21
2022-11-26T01:08:25.301Z,61.08
2022-11-26T01:10:59.769Z,61.38
2022-11-26T01:13:33.324Z,61.50
2022-11-26T01:16:20.682Z,61.36
2022-11-26T01:18:54.614Z,61.44
2022-11-26T01:21:28.807Z,61.51
2022-11-26T01:24:01.570Z,61.29
2022-11-26T01:26:38.581Z,61.22
2022-11-26T01:29:14.632Z,60.98
2022-11-26T01:31:50.211Z,61.04
2022-11-26T01:34:22.774Z,60.95
2022-11-26T01:36:54.700Z,60.95
2022-11-26T01:39:28.866Z,61.10
2022-11-26T01:42:08.562Z,60.88
2022-11-26T01:44:41.128Z,60.87
2022-11-26T01:47:24.074Z,60.93
2022-11-26T01:50:45.578Z,60.78
2022-11-26T01:53:25.391Z,61.18
2022-11-26T01:56:04.937Z,61.02
2022-11-26T01:58:40.966Z,61.12
2022-11-26T02:01:14.062Z,61.27
2022-11-26T02:03:57.281Z,61.37
2022-11-26T02:06:33.452Z,61.15
2022-11-26T02:09:07.466Z,60.87
2022-11-26T02:11:40.394Z,60.79
2022-11-26T02:14:15.622Z,60.76
2022-11-26T02:17:15.151Z,60.82
2022-11-26T02:20:14.719Z,60.79
2022-11-26T02:23:07.249Z,61.16
2022-11-26T02:26:17.159Z,61.21
2022-11-26T02:29:03.081Z,61.38
2022-11-26T02:31:39.856Z,61.52
2022-11-26T02:34:16.657Z,61.52
2022-11-26T02:36:51.186Z,61.43
2022-11-26T02:39:28.406Z,61.18
2022-11-26T02:42:04.645Z,61.25
2022-11-26T02:44:43.804Z,61.11
2022-11-26T02:47:18.393Z,61.09
2022-11-26T02:49:55.766Z,60.97
2022-11-26T02:52:28.417Z,61.24
2022-11-26T02:55:01.342Z,61.21
2022-11-26T02:57:37.512Z,61.33
2022-11-26T03:00:13.088Z,61.23
2022-11-26T03:02:49.990Z,61.30
2022-11-26T03:05:23.854Z,61.24
2022-11-26T03:07:57.403Z,61.27
2022-11-26T03:10:31.681Z,61.10
2022-11-26T03:13:07.004Z,61.23
2022-11-26T03:15:38.859Z,61.13
2022-11-26T03:18:14.369Z,60.91
2022-11-26T03:20:52.556Z,61.04
2022-11-26T03:23:26.074Z,60.87
2022-11-26T03:25:59.418Z,60.91
2022-11-26T03:28:33.803Z,61.05
2022-11-26T03:31:07.418Z,60.94
2022-11-26T03:33:40.870Z,61.09
2022-11-26T03:36:14.996Z,61.05
2022-11-26T03:38:49.549Z,61.01
2022-11-26T03:41:23.449Z,60.95
2022-11-26T03:43:57.347Z,60.96
2022-11-26T03:46:31.061Z,61.03
2022-11-26T03:49:04.782Z,61.10
2022-11-26T03:51:37.108Z,60.88
2022-11-26T03:54:11.542Z,60.63
2022-11-26T03:56:43.315Z,60.68
2022-11-26T03:59:17.313Z,60.85
2022-11-26T04:01:51.162Z,60.75
2022-11-26T04:04:24.622Z,60.64
2022-11-26T04:06:59.400Z,60.53
2022-11-26T04:09:33.839Z,60.63
2022-11-26T04:12:10.688Z,60.43
2022-11-26T04:14:47.451Z,60.43
2022-11-26T04:17:20.322Z,60.61
2022-11-26T04:19:55.238Z,60.90
2022-11-26T04:22:27.309Z,60.70
2022-11-26T04:25:00.579Z,60.74
2022-11-26T04:27:34.745Z,60.74
2022-11-26T04:30:09.557Z,60.77
2022-11-26T04:32:43.597Z,60.88
2022-11-26T04:35:17.685Z,60.64
2022-11-26T04:37:50.264Z,60.91
2022-11-26T04:40:23.964Z,60.73
2022-11-26T04:42:55.802Z,60.52
2022-11-26T04:45:28.191Z,60.73
2022-11-26T04:48:05.649Z,60.66
2022-11-26T04:50:37.752Z,60.70
2022-11-26T04:53:10.564Z,60.64
2022-11-26T04:55:43.740Z,60.85
2022-11-26T04:58:16.874Z,60.72
2022-11-26T05:00:52.683Z,60.73
2022-11-26T05:03:26.503Z,60.60
2022-11-26T05:05:59.068Z,60.53
2022-11-26T05:08:32.666Z,60.37
2022-11-26T05:11:05.248Z,60.50
2022-11-26T05:13:39.023Z,60.65
2022-11-26T05:16:13.225Z,60.76
2022-11-26T05:18:45.624Z,60.77
2022-11-26T05:21:19.345Z,60.96
2022-11-26T05:23:51.671Z,60.92
2022-11-26T05:26:26.428Z,61.00
2022-11-26T05:28:58.916Z,61.09
2022-11-26T05:31:33.161Z,61.21
2022-11-26T05:34:09.983Z,61.42
2022-11-26T05:36:41.927Z,61.40
2022-11-26T05:39:14.560Z,61.35
2022-11-26T05:41:47.556Z,61.55
2022-11-26T05:44:21.138Z,61.60
2022-11-26T05:46:55.584Z,61.45
2022-11-26T05:49:28.765Z,61.12
2022-11-26T05:52:03.851Z,61.31
2022-11-26T05:54:36.672Z,61.15
2022-11-26T05:57:11.017Z,60.99
2022-11-26T05:59:44.562Z,61.15
2022-11-26T06:02:17.042Z,61.17
2022-11-26T06:04:52.557Z,61.13
2022-11-26T06:07:26.866Z,61.09
2022-11-26T06:10:00.553Z,61.01
2022-11-26T06:12:33.752Z,60.90
2022-11-26T06:15:08.295Z,60.64
2022-11-26T06:17:43.092Z,60.73
2022-11-26T06:20:16.388Z,60.86
2022-11-26T06:22:49.689Z,60.87
2022-11-26T06:25:22.902Z,61.00
2022-11-26T06:27:56.830Z,60.89
2022-11-26T06:30:29.322Z,60.86
2022-11-26T06:33:05.242Z,61.01
2022-11-26T06:35:38.971Z,60.90
2022-11-26T06:38:10.990Z,61.13
2022-11-26T06:40:44.652Z,60.77
2022-11-26T06:43:17.288Z,60.80
2022-11-26T06:45:49.264Z,60.81
2022-11-26T06:48:22.448Z,60.86
2022-11-26T06:50:56.245Z,60.84
2022-11-26T06:53:29.678Z,60.72
2022-11-26T06:56:05.224Z,60.85
2022-11-26T06:58:38.746Z,61.23
2022-11-26T07:01:15.983Z,61.43
2022-11-26T07:03:50.306Z,61.26
2022-11-26T07:06:25.103Z,61.14
2022-11-26T07:09:04.513Z,60.89
2022-11-26T07:11:39.085Z,61.04
2022-11-26T07:14:11.465Z,60.89
2022-11-26T07:16:43.476Z,60.77
2022-11-26T07:19:17.824Z,61.17
2022-11-26T07:21:51.316Z,60.91
2022-11-26T07:24:23.550Z,60.70
2022-11-26T07:26:58.223Z,60.93
2022-11-26T07:29:30.370Z,60.88
2022-11-26T07:32:04.551Z,60.92
2022-11-26T07:34:37.589Z,60.94
2022-11-26T07:37:11.530Z,60.83
2022-11-26T07:39:44.674Z,60.74
2022-11-26T07:42:18.012Z,60.71
2022-11-26T07:44:53.105Z,61.03
2022-11-26T07:47:25.979Z,61.14
2022-11-26T07:49:57.907Z,61.04
2022-11-26T07:52:30.715Z,60.86
2022-11-26T07:55:12.475Z,60.64
2022-11-26T07:57:46.965Z,61.02
2022-11-26T08:00:21.757Z,60.81
2022-11-26T08:02:53.860Z,60.75
2022-11-26T08:05:27.874Z,61.10
2022-11-26T08:08:01.490Z,61.04
2022-11-26T08:10:34.304Z,60.93
2022-11-26T08:13:07.870Z,60.80
2022-11-26T08:15:41.886Z,60.72
2022-11-26T08:18:13.894Z,60.82
2022-11-26T08:20:47.158Z,60.50
2022-11-26T08:23:21.857Z,60.52
2022-11-26T08:26:20.452Z,60.71
2022-11-26T08:28:48.658Z,60.93
2022-11-26T08:31:22.401Z,60.92
2022-11-26T08:33:56.722Z,60.95
2022-11-26T08:36:30.255Z,61.17
2022-11-26T08:39:04.252Z,61.15
2022-11-26T08:41:36.941Z,61.15
2022-11-26T08:44:10.511Z,61.03
2022-11-26T08:46:44.274Z,60.63
2022-11-26T08:49:20.202Z,60.51
2022-11-26T08:51:54.145Z,60.62
2022-11-26T08:54:28.028Z,60.77
2022-11-26T08:57:03.111Z,60.83
2022-11-26T08:59:35.427Z,60.99
2022-11-26T09:02:18.460Z,60.98
2022-11-26T09:04:55.360Z,61.01
2022-11-26T09:07:29.318Z,61.00
2022-11-26T09:10:03.373Z,61.08
2022-11-26T09:12:38.077Z,61.15
2022-11-26T09:15:12.848Z,61.08
2022-11-26T09:17:45.722Z,61.14
2022-11-26T09:20:19.800Z,61.19
2022-11-26T09:22:52.985Z,61.24
2022-11-26T09:25:27.354Z,61.29
2022-11-26T09:28:00.173Z,61.30
2022-11-26T09:30:35.278Z,61.25
2022-11-26T09:33:09.876Z,61.20
2022-11-26T09:35:42.512Z,61.23
2022-11-26T09:38:16.559Z,61.31
2022-11-26T09:40:51.935Z,61.44
2022-11-26T09:43:31.312Z,61.44
2022-11-26T09:46:10.351Z,61.48
2022-11-26T09:48:44.485Z,61.45
2022-11-26T09:51:21.005Z,61.48
2022-11-26T09:53:55.102Z,61.39
2022-11-26T09:56:33.013Z,61.35
2022-11-26T09:59:08.582Z,61.28
2022-11-26T10:01:43.166Z,61.32
2022-11-26T10:04:24.006Z,61.28
2022-11-26T10:07:01.489Z,61.46
2022-11-26T10:09:47.480Z,61.45
2022-11-26T10:12:29.956Z,61.50
2022-11-26T10:15:08.412Z,61.38
2022-11-26T10:17:46.668Z,61.44
2022-11-26T10:20:47.049Z,61.56
2022-11-26T10:23:26.588Z,61.58
2022-11-26T10:26:08.068Z,61.76
2022-11-26T10:28:47.186Z,62.00
2022-11-26T10:31:23.685Z,61.89
2022-11-26T10:34:04.656Z,61.96
2022-11-26T10:36:40.337Z,62.23
2022-11-26T10:39:19.287Z,62.14
2022-11-26T10:41:52.227Z,62.08
2022-11-26T10:44:41.223Z,62.22
2022-11-26T10:47:26.370Z,62.27
2022-11-26T10:50:45.422Z,62.06
2022-11-26T10:53:16.847Z,61.98
2022-11-26T10:55:50.084Z,61.85
2022-11-26T10:58:24.526Z,61.84
2022-11-26T11:01:07.781Z,61.92
2022-11-26T11:04:08.592Z,61.68
2022-11-26T11:06:44.023Z,61.72
2022-11-26T11:09:36.585Z,61.65
2022-11-26T11:12:32.192Z,61.67
2022-11-26T11:15:24.912Z,61.67
2022-11-26T11:18:03.882Z,61.79
2022-11-26T11:20:39.227Z,61.80
2022-11-26T11:23:39.998Z,61.77
2022-11-26T11:26:21.790Z,61.94
2022-11-26T11:28:58.285Z,61.97
2022-11-26T11:31:30.233Z,62.06
2022-11-26T11:34:19.941Z,62.14
2022-11-26T11:37:10.530Z,62.26
2022-11-26T11:39:47.019Z,62.14
2022-11-26T11:42:28.668Z,62.07
2022-11-26T11:45:03.564Z,62.07
2022-11-26T11:47:39.148Z,62.12
2022-11-26T11:50:22.811Z,62.19
2022-11-26T11:53:06.867Z,62.43
2022-11-26T11:56:00.940Z,62.27
2022-11-26T11:59:04.066Z,62.30
2022-11-26T12:01:49.177Z,62.13
2022-11-26T12:04:28.400Z,62.04
2022-11-26T12:07:38.373Z,62.14
2022-11-26T12:10:18.312Z,62.22
2022-11-26T12:12:53.551Z,62.18
2022-11-26T12:15:29.962Z,62.13
2022-11-26T12:18:08.083Z,62.09
2022-11-26T12:20:46.743Z,62.10
2022-11-26T12:23:33.579Z,61.99
2022-11-26T12:26:13.824Z,62.05
2022-11-26T12:28:52.735Z,62.24
2022-11-26T12:31:35.012Z,62.36
2022-11-26T12:34:14.310Z,62.24
2022-11-26T12:36:53.234Z,62.16
2022-11-26T12:39:34.067Z,62.10
2022-11-26T12:42:13.456Z,61.94
2022-11-26T12:44:48.546Z,61.98
2022-11-26T12:47:25.554Z,62.03
2022-11-26T12:50:07.231Z,61.97
2022-11-26T12:52:43.512Z,62.11
2022-11-26T12:55:24.590Z,62.25
2022-11-26T12:58:02.034Z,62.28
2022-11-26T13:00:36.756Z,62.35
2022-11-26T13:03:18.278Z,62.23
2022-11-26T13:05:58.584Z,62.24
2022-11-26T13:08:43.194Z,62.33
2022-11-26T13:11:33.720Z,62.46
2022-11-26T13:14:11.112Z,62.39
2022-11-26T13:16:52.516Z,62.24
2022-11-26T13:19:34.314Z,62.28
2022-11-26T13:22:31.336Z,62.32
2022-11-26T13:25:27.246Z,62.25
2022-11-26T13:28:07.594Z,62.25
2022-11-26T13:30:52.821Z,62.19
2022-11-26T13:33:47.615Z,62.19
2022-11-26T13:36:42.568Z,62.26
2022-11-26T13:39:30.838Z,62.09
2022-11-26T13:42:13.922Z,61.93
2022-11-26T13:45:17.384Z,62.05
2022-11-26T13:47:52.441Z,62.00
2022-11-26T13:50:31.505Z,62.05
2022-11-26T13:53:07.796Z,61.92
2022-11-26T13:55:45.926Z,61.88
2022-11-26T13:58:25.022Z,61.95
2022-11-26T14:01:30.553Z,61.83
2022-11-26T14:04:06.751Z,61.89
2022-11-26T14:06:39.535Z,61.94
2022-11-26T14:09:54.439Z,61.99
2022-11-26T14:13:07.951Z,61.95
2022-11-26T14:15:59.760Z,62.03
2022-11-26T14:18:59.341Z,62.09
2022-11-26T14:21:33.021Z,62.06
2022-11-26T14:24:06.949Z,61.97
2022-11-26T14:26:42.230Z,61.86
2022-11-26T14:29:17.639Z,61.88
2022-11-26T14:31:54.358Z,62.00
2022-11-26T14:34:30.731Z,62.01
2022-11-26T14:37:04.086Z,62.09
2022-11-26T14:39:36.522Z,62.02
2022-11-26T14:42:13.627Z,61.97
2022-11-26T14:44:47.507Z,61.97
2022-11-26T14:47:22.354Z,62.00
2022-11-26T14:49:57.040Z,61.73
2022-11-26T14:52:30.597Z,61.58
2022-11-26T14:55:07.181Z,61.56
2022-11-26T14:57:45.545Z,61.52
2022-11-26T15:00:26.808Z,61.48
2022-11-26T15:03:00.537Z,61.52
2022-11-26T15:05:40.723Z,61.42
2022-11-26T15:08:20.253Z,61.11
2022-11-26T15:10:56.826Z,61.25
2022-11-26T15:13:32.008Z,61.25
2022-11-26T15:16:26.571Z,61.44
2022-11-26T15:19:02.001Z,61.56
2022-11-26T15:21:41.258Z,61.59
2022-11-26T15:24:14.997Z,61.80
2022-11-26T15:26:49.408Z,61.97
2022-11-26T15:29:32.967Z,61.85
2022-11-26T15:32:07.340Z,62.09
2022-11-26T15:34:44.638Z,62.20
2022-11-26T15:37:18.581Z,62.18
2022-11-26T15:39:50.502Z,62.27
2022-11-26T15:42:30.582Z,62.48
2022-11-26T15:45:03.489Z,62.67
2022-11-26T15:47:35.440Z,62.75
2022-11-26T15:50:22.424Z,62.72
2022-11-26T15:53:06.527Z,62.88
2022-11-26T15:55:41.509Z,62.93
2022-11-26T15:58:17.816Z,63.28
2022-11-26T16:00:54.488Z,63.22
2022-11-26T16:03:45.472Z,63.13
2022-11-26T16:06:31.625Z,63.11
2022-11-26T16:09:28.111Z,62.71
2022-11-26T16:12:02.698Z,62.69
2022-11-26T16:14:36.667Z,62.81
2022-11-26T16:17:13.405Z,62.70
2022-11-26T16:19:52.652Z,62.67
2022-11-26T16:22:28.590Z,62.71
2022-11-26T16:25:20.998Z,62.82
2022-11-26T16:28:15.806Z,62.77
2022-11-26T16:30:51.737Z,62.91
2022-11-26T16:33:29.530Z,62.77
2022-11-26T16:36:04.207Z,62.73
2022-11-26T16:38:40.199Z,62.86
2022-11-26T16:41:18.920Z,62.77
2022-11-26T16:43:51.826Z,62.67
2022-11-26T16:46:27.826Z,62.33
2022-11-26T16:49:03.518Z,62.05
2022-11-26T16:51:38.998Z,62.18
2022-11-26T16:54:16.880Z,62.21
2022-11-26T16:56:53.323Z,62.07
2022-11-26T16:59:32.361Z,62.06
2022-11-26T17:02:10.807Z,62.04
2022-11-26T17:04:45.375Z,62.01
2022-11-26T17:07:24.893Z,61.97
2022-11-26T17:09:58.380Z,62.00
2022-11-26T17:12:33.707Z,61.86
2022-11-26T17:15:08.969Z,61.61
2022-11-26T17:17:42.318Z,61.60
2022-11-26T17:20:21.259Z,61.57
2022-11-26T17:22:53.280Z,61.60
2022-11-26T17:25:29.317Z,61.42
2022-11-26T17:28:01.144Z,61.57
2022-11-26T17:30:36.308Z,61.60
2022-11-26T17:33:10.860Z,61.64
2022-11-26T17:35:43.446Z,61.45
2022-11-26T17:38:18.400Z,61.53
2022-11-26T17:40:52.232Z,61.39
2022-11-26T17:43:29.689Z,61.40
2022-11-26T17:46:04.909Z,61.21
2022-11-26T17:48:40.175Z,61.07
2022-11-26T17:51:14.695Z,61.13
2022-11-26T17:53:49.229Z,61.15
2022-11-26T17:56:27.025Z,61.05
2022-11-26T17:59:06.596Z,61.17
2022-11-26T18:01:45.212Z,61.12
2022-11-26T18:04:20.581Z,61.26
2022-11-26T18:06:59.394Z,61.36
2022-11-26T18:09:37.400Z,61.48
2022-11-26T18:12:21.581Z,61.46
2022-11-26T18:14:57.794Z,61.34
2022-11-26T18:17:31.486Z,61.10
2022-11-26T18:20:04.955Z,61.15
2022-11-26T18:22:37.495Z,61.12
2022-11-26T18:25:10.890Z,61.19
2022-11-26T18:27:44.145Z,61.27
2022-11-26T18:30:20.708Z,61.22
2022-11-26T18:32:53.769Z,61.17
2022-11-26T18:35:30.114Z,61.06
2022-11-26T18:38:07.825Z,61.03
2022-11-26T18:40:42.599Z,61.00
2022-11-26T18:43:17.002Z,61.15
2022-11-26T18:45:50.850Z,61.30
2022-11-26T18:48:25.098Z,61.38
2022-11-26T18:51:03.208Z,61.36
2022-11-26T18:53:37.281Z,61.12
2022-11-26T18:56:13.403Z,61.16
2022-11-26T18:58:48.292Z,61.27
2022-11-26T19:01:25.874Z,61.29
2022-11-26T19:04:02.403Z,61.29
2022-11-26T19:06:35.159Z,61.50
2022-11-26T19:09:09.967Z,61.48
2022-11-26T19:11:44.542Z,61.66
2022-11-26T19:14:17.611Z,61.69
2022-11-26T19:16:53.835Z,61.69
2022-11-26T19:19:29.232Z,61.74
2022-11-26T19:22:02.149Z,61.69
2022-11-26T19:24:36.678Z,61.68
2022-11-26T19:27:10.351Z,61.72
2022-11-26T19:29:42.657Z,61.81
2022-11-26T19:32:16.008Z,61.75
2022-11-26T19:34:48.271Z,61.74
2022-11-26T19:37:25.573Z,61.62
2022-11-26T19:39:59.458Z,61.50
2022-11-26T19:42:34.399Z,61.47
2022-11-26T19:45:08.856Z,61.29
2022-11-26T19:47:42.313Z,61.14
2022-11-26T19:50:14.469Z,60.85
2022-11-26T19:52:48.045Z,60.61
2022-11-26T19:55:21.224Z,60.38
2022-11-26T19:57:53.089Z,60.31
2022-11-26T20:00:26.183Z,60.29
2022-11-26T20:03:03.635Z,60.52
2022-11-26T20:05:41.591Z,60.47
2022-11-26T20:08:17.708Z,60.39
2022-11-26T20:10:50.652Z,60.30
2022-11-26T20:13:24.131Z,60.55
2022-11-26T20:15:57.117Z,60.44
2022-11-26T20:18:33.090Z,60.22
2022-11-26T20:21:10.509Z,60.24
2022-11-26T20:23:45.056Z,60.30
2022-11-26T20:26:21.921Z,60.46
2022-11-26T20:28:56.441Z,60.51
2022-11-26T20:31:30.478Z,60.45
2022-11-26T20:34:07.364Z,60.39
2022-11-26T20:36:40.003Z,60.29
2022-11-26T20:39:18.516Z,60.17
2022-11-26T20:41:58.029Z,60.22
2022-11-26T20:44:31.928Z,60.55
2022-11-26T20:47:08.175Z,60.51
2022-11-26T20:49:51.455Z,60.33
2022-11-26T20:52:37.338Z,60.22
2022-11-26T20:55:22.203Z,60.07
2022-11-26T20:58:00.578Z,60.21
2022-11-26T21:00:34.712Z,60.46
2022-11-26T21:03:09.316Z,60.47
2022-11-26T21:05:43.056Z,60.43
2022-11-26T21:08:21.701Z,60.20
2022-11-26T21:10:55.692Z,60.16
2022-11-26T21:13:31.023Z,60.35
2022-11-26T21:16:06.814Z,60.54
2022-11-26T21:18:39.732Z,60.65
2022-11-26T21:21:14.789Z,60.68
2022-11-26T21:23:48.913Z,60.61
2022-11-26T21:26:25.817Z,60.42
2022-11-26T21:29:00.181Z,60.39
2022-11-26T21:31:38.331Z,60.33
2022-11-26T21:34:12.975Z,60.16
2022-11-26T21:36:44.901Z,60.20
2022-11-26T21:39:20.915Z,60.08
2022-11-26T21:41:54.219Z,60.05
2022-11-26T21:44:26.686Z,59.78
2022-11-26T21:46:59.244Z,59.73
2022-11-26T21:49:34.202Z,59.81
2022-11-26T21:52:11.370Z,59.68
2022-11-26T21:54:45.480Z,59.84
2022-11-26T21:57:20.576Z,59.94
2022-11-26T21:59:53.648Z,60.15
2022-11-26T22:02:29.106Z,59.99
2022-11-26T22:05:03.149Z,60.24
2022-11-26T22:07:37.413Z,60.36
2022-11-26T22:10:13.063Z,60.29
2022-11-26T22:12:47.808Z,60.17
2022-11-26T22:15:20.024Z,60.19
2022-11-26T22:17:53.692Z,60.25
2022-11-26T22:20:29.088Z,60.05
2022-11-26T22:23:01.897Z,59.93
2022-11-26T22:25:37.200Z,60.17
2022-11-26T22:28:12.337Z,60.01
2022-11-26T22:30:44.482Z,59.78
2022-11-26T22:33:18.253Z,59.83
2022-11-26T22:35:50.267Z,59.76
2022-11-26T22:38:26.534Z,59.83
2022-11-26T22:41:04.401Z,59.79
2022-11-26T22:43:36.364Z,59.65
2022-11-26T22:46:13.739Z,59.97
2022-11-26T22:48:49.461Z,60.15
2022-11-26T22:51:24.252Z,60.10
2022-11-26T22:53:59.401Z,60.09
2022-11-26T22:56:32.357Z,59.89
2022-11-26T22:59:05.694Z,59.59
2022-11-26T23:01:39.115Z,59.45
2022-11-26T23:04:12.396Z,59.64
2022-11-26T23:06:45.183Z,59.71
2022-11-26T23:09:20.830Z,59.71
2022-11-26T23:11:54.820Z,59.76
2022-11-26T23:14:26.590Z,59.55
2022-11-26T23:17:01.681Z,59.37
2022-11-26T23:19:35.549Z,59.57
2022-11-26T23:22:09.028Z,59.49
2022-11-26T23:24:45.104Z,59.48
2022-11-26T23:27:20.710Z,59.41
2022-11-26T23:29:53.865Z,59.51
2022-11-26T23:32:32.146Z,59.34
2022-11-26T23:35:05.237Z,59.40
2022-11-26T23:37:40.666Z,59.43
2022-11-26T23:40:16.348Z,59.28
2022-11-26T23:42:48.973Z,59.43
2022-11-26T23:45:22.335Z,59.37
2022-11-26T23:47:55.879Z,59.16
2022-11-26T23:50:28.460Z,59.25
2022-11-26T23:53:03.236Z,59.16
2022-11-26T23:55:36.935Z,59.36
2022-11-26T23:58:09.137Z,59.39
